createdAt,value
2016-10-09T00:00:16.887Z,734.18
2016-10-09T00:01:16.863Z,734.22
2016-10-09T00:02:16.843Z,734.28
2016-10-09T00:03:16.834Z,734.24
2016-10-09T00:04:16.816Z,734.2
2016-10-09T00:05:16.799Z,734.2
2016-10-09T00:06:16.773Z,734.22
2016-10-09T00:07:16.756Z,734.24
2016-10-09T00:08:16.746Z,734.23
2016-10-09T00:09:16.728Z,734.19
2016-10-09T00:10:16.710Z,734.22
2016-10-09T00:11:16.687Z,734.17
2016-10-09T00:12:16.669Z,734.22
2016-10-09T00:13:16.657Z,734.28
2016-10-09T00:14:16.640Z,734.23
2016-10-09T00:15:16.617Z,734.21
2016-10-09T00:16:16.605Z,734.23
2016-10-09T00:17:16.579Z,734.21
2016-10-09T00:18:16.568Z,734.22
2016-10-09T00:19:16.551Z,734.25
2016-10-09T00:20:16.525Z,734.16
2016-10-09T00:21:16.514Z,734.16
2016-10-09T00:22:16.489Z,734.21
2016-10-09T00:23:16.472Z,734.27
2016-10-09T00:24:16.453Z,734.23
2016-10-09T00:25:16.441Z,734.26
2016-10-09T00:26:16.417Z,734.24
2016-10-09T00:27:16.405Z,734.22
2016-10-09T00:28:16.386Z,734.23
2016-10-09T00:29:16.360Z,734.27
2016-10-09T00:30:16.349Z,734.24
2016-10-09T00:31:16.322Z,734.22
2016-10-09T00:32:16.310Z,734.21
2016-10-09T00:33:16.291Z,734.24
2016-10-09T00:34:16.274Z,734.25
2016-10-09T00:35:16.252Z,734.22
2016-10-09T00:36:16.226Z,734.27
2016-10-09T00:37:16.214Z,734.24
2016-10-09T00:38:16.188Z,734.22
2016-10-09T00:39:16.175Z,734.22
2016-10-09T00:40:16.150Z,734.22
2016-10-09T00:41:16.137Z,734.21
2016-10-09T00:42:16.110Z,734.24
2016-10-09T00:43:16.091Z,734.25
2016-10-09T00:44:16.072Z,734.21
2016-10-09T00:45:16.052Z,734.23
2016-10-09T00:46:16.039Z,734.22
2016-10-09T00:47:16.013Z,734.22
2016-10-09T00:48:15.994Z,734.24
2016-10-09T00:49:15.975Z,734.22
2016-10-09T00:50:15.956Z,734.24
2016-10-09T00:51:15.937Z,734.26
2016-10-09T00:52:15.925Z,734.23
2016-10-09T00:53:15.898Z,734.25
2016-10-09T00:54:15.878Z,734.21
2016-10-09T00:55:15.859Z,734.25
2016-10-09T00:56:15.840Z,734.24
2016-10-09T00:57:15.827Z,734.25
2016-10-09T00:58:15.808Z,734.24
2016-10-09T00:59:15.790Z,734.28
2016-10-09T01:00:15.771Z,734.23
2016-10-09T01:01:15.744Z,734.24
2016-10-09T01:02:15.732Z,734.22
2016-10-09T01:03:15.713Z,734.23
2016-10-09T01:04:15.694Z,734.21
2016-10-09T01:05:15.668Z,734.2
2016-10-09T01:06:15.650Z,734.2
2016-10-09T01:07:15.643Z,734.2
2016-10-09T01:08:15.610Z,734.19
2016-10-09T01:09:15.591Z,734.19
2016-10-09T01:10:15.579Z,734.19
2016-10-09T01:11:15.564Z,734.2
2016-10-09T01:12:15.534Z,734.16
2016-10-09T01:13:15.515Z,734.17
2016-10-09T01:14:15.495Z,734.14
2016-10-09T01:15:15.475Z,734.14
2016-10-09T01:16:15.455Z,734.15
2016-10-09T01:17:15.436Z,734.16
2016-10-09T01:18:15.425Z,734.18
2016-10-09T01:19:15.398Z,734.15
2016-10-09T01:20:15.386Z,734.15
2016-10-09T01:21:15.360Z,734.13
2016-10-09T01:22:15.348Z,734.11
2016-10-09T01:23:15.328Z,734.06
2016-10-09T01:24:15.303Z,734.13
2016-10-09T01:25:15.284Z,734.12
2016-10-09T01:26:15.271Z,734.11
2016-10-09T01:27:15.252Z,734.1
2016-10-09T01:28:15.233Z,734.1
2016-10-09T01:29:15.208Z,734.07
2016-10-09T01:30:15.194Z,734.06
2016-10-09T01:31:15.175Z,734.07
2016-10-09T01:32:15.156Z,734.03
2016-10-09T01:33:15.137Z,734.06
2016-10-09T01:34:15.118Z,734.07
2016-10-09T01:35:15.092Z,734.08
2016-10-09T01:36:15.082Z,734.03
2016-10-09T01:37:15.052Z,734.05
2016-10-09T01:38:15.033Z,734.04
2016-10-09T01:39:15.015Z,734.03
2016-10-09T01:40:14.996Z,734.01
2016-10-09T01:41:14.983Z,734.05
2016-10-09T01:42:14.957Z,734.03
2016-10-09T01:43:14.945Z,734.01
2016-10-09T01:44:14.918Z,734
2016-10-09T01:45:14.908Z,733.97
2016-10-09T01:46:14.888Z,733.93
2016-10-09T01:47:14.862Z,733.94
2016-10-09T01:48:14.850Z,733.91
2016-10-09T01:49:14.824Z,733.92
2016-10-09T01:50:14.815Z,733.87
2016-10-09T01:51:14.787Z,733.86
2016-10-09T01:52:14.768Z,733.83
2016-10-09T01:53:14.750Z,733.83
2016-10-09T01:54:14.730Z,733.82
2016-10-09T01:55:14.710Z,733.78
2016-10-09T01:56:14.692Z,733.76
2016-10-09T01:57:14.680Z,733.78
2016-10-09T01:58:14.655Z,733.8
2016-10-09T01:59:14.641Z,733.8
2016-10-09T02:00:14.622Z,733.83
2016-10-09T02:01:14.603Z,733.8
2016-10-09T02:02:14.577Z,733.83
2016-10-09T02:03:14.563Z,733.87
2016-10-09T02:04:14.544Z,733.84
2016-10-09T02:05:14.519Z,733.85
2016-10-09T02:06:14.504Z,733.85
2016-10-09T02:07:14.478Z,733.86
2016-10-09T02:08:14.466Z,733.86
2016-10-09T02:09:14.446Z,733.81
2016-10-09T02:10:14.422Z,733.87
2016-10-09T02:11:14.400Z,733.83
2016-10-09T02:12:14.383Z,733.8
2016-10-09T02:13:14.367Z,733.82
2016-10-09T02:14:14.340Z,733.8
2016-10-09T02:15:14.326Z,733.79
2016-10-09T02:16:14.307Z,733.84
2016-10-09T02:17:14.286Z,733.77
2016-10-09T02:18:14.266Z,733.78
2016-10-09T02:19:14.247Z,733.83
2016-10-09T02:20:14.220Z,733.86
2016-10-09T02:21:14.206Z,733.83
2016-10-09T02:22:14.180Z,733.83
2016-10-09T02:23:14.166Z,733.78
2016-10-09T02:24:14.139Z,733.77
2016-10-09T02:25:14.119Z,733.74
2016-10-09T02:26:14.106Z,733.78
2016-10-09T02:27:14.086Z,733.8
2016-10-09T02:28:14.065Z,733.73
2016-10-09T02:29:14.045Z,733.75
2016-10-09T02:30:14.025Z,733.76
2016-10-09T02:31:13.998Z,733.77
2016-10-09T02:32:13.984Z,733.75
2016-10-09T02:33:13.964Z,733.76
2016-10-09T02:34:13.944Z,733.78
2016-10-09T02:35:13.924Z,733.75
2016-10-09T02:36:13.903Z,733.74
2016-10-09T02:37:13.876Z,733.79
2016-10-09T02:38:13.863Z,733.73
2016-10-09T02:39:13.834Z,733.74
2016-10-09T02:40:13.822Z,733.7
2016-10-09T02:41:13.802Z,733.65
2016-10-09T02:42:13.775Z,733.61
2016-10-09T02:43:13.756Z,733.6
2016-10-09T02:44:13.735Z,733.64
2016-10-09T02:45:13.722Z,733.66
2016-10-09T02:46:13.703Z,733.73
2016-10-09T02:47:13.674Z,733.69
2016-10-09T02:48:13.662Z,733.66
2016-10-09T02:49:13.642Z,733.69
2016-10-09T02:50:13.620Z,733.66
2016-10-09T02:51:13.602Z,733.67
2016-10-09T02:52:13.576Z,733.61
2016-10-09T02:53:13.562Z,733.65
2016-10-09T02:54:13.542Z,733.65
2016-10-09T02:55:13.522Z,733.61
2016-10-09T02:56:13.495Z,733.61
2016-10-09T02:57:13.476Z,733.6
2016-10-09T02:58:13.456Z,733.67
2016-10-09T02:59:13.443Z,733.64
2016-10-09T03:00:13.423Z,733.63
2016-10-09T03:01:13.403Z,733.64
2016-10-09T03:02:13.383Z,733.59
2016-10-09T03:03:13.364Z,733.65
2016-10-09T03:04:13.344Z,733.63
2016-10-09T03:05:13.316Z,733.58
2016-10-09T03:06:13.297Z,733.6
2016-10-09T03:07:13.284Z,733.56
2016-10-09T03:08:13.258Z,733.5
2016-10-09T03:09:13.238Z,733.55
2016-10-09T03:10:13.226Z,733.52
2016-10-09T03:11:13.199Z,733.53
2016-10-09T03:12:13.178Z,733.59
2016-10-09T03:13:13.166Z,733.54
2016-10-09T03:14:13.139Z,733.53
2016-10-09T03:15:13.119Z,733.58
2016-10-09T03:16:13.099Z,733.52
2016-10-09T03:17:13.079Z,733.54
2016-10-09T03:18:13.061Z,733.57
2016-10-09T03:19:13.046Z,733.54
2016-10-09T03:20:13.026Z,733.57
2016-10-09T03:21:13.001Z,733.56
2016-10-09T03:22:12.987Z,733.57
2016-10-09T03:23:12.967Z,733.56
2016-10-09T03:24:12.941Z,733.58
2016-10-09T03:25:12.920Z,733.58
2016-10-09T03:26:12.907Z,733.56
2016-10-09T03:27:12.880Z,733.57
2016-10-09T03:28:12.867Z,733.58
2016-10-09T03:29:12.847Z,733.58
2016-10-09T03:30:12.821Z,733.59
2016-10-09T03:31:12.807Z,733.55
2016-10-09T03:32:12.788Z,733.53
2016-10-09T03:33:12.770Z,733.56
2016-10-09T03:34:12.741Z,733.53
2016-10-09T03:35:12.730Z,733.52
2016-10-09T03:36:12.702Z,733.55
2016-10-09T03:37:12.684Z,733.53
2016-10-09T03:38:12.663Z,733.49
2016-10-09T03:39:12.650Z,733.51
2016-10-09T03:40:12.630Z,733.45
2016-10-09T03:41:12.602Z,733.46
2016-10-09T03:42:12.584Z,733.41
2016-10-09T03:43:12.570Z,733.42
2016-10-09T03:44:12.551Z,733.43
2016-10-09T03:45:12.523Z,733.48
2016-10-09T03:46:12.510Z,733.47
2016-10-09T03:47:12.490Z,733.45
2016-10-09T03:48:12.471Z,733.43
2016-10-09T03:49:12.444Z,733.45
2016-10-09T03:50:12.431Z,733.47
2016-10-09T03:51:12.411Z,733.41
2016-10-09T03:52:12.383Z,733.42
2016-10-09T03:53:12.371Z,733.45
2016-10-09T03:54:12.344Z,733.42
2016-10-09T03:55:12.332Z,733.47
2016-10-09T03:56:12.311Z,733.41
2016-10-09T03:57:12.293Z,733.42
2016-10-09T03:58:12.272Z,733.44
2016-10-09T03:59:12.246Z,733.41
2016-10-09T04:00:12.239Z,733.46
2016-10-09T04:01:12.212Z,733.42
2016-10-09T04:02:12.193Z,733.41
2016-10-09T04:03:12.165Z,733.39
2016-10-09T04:04:12.153Z,733.39
2016-10-09T04:05:12.126Z,733.44
2016-10-09T04:06:12.108Z,733.43
2016-10-09T04:07:12.087Z,733.42
2016-10-09T04:08:12.075Z,733.42
2016-10-09T04:09:12.048Z,733.42
2016-10-09T04:10:12.029Z,733.42
2016-10-09T04:11:12.008Z,733.43
2016-10-09T04:12:11.996Z,733.44
2016-10-09T04:13:11.977Z,733.46
2016-10-09T04:14:11.957Z,733.48
2016-10-09T04:15:11.931Z,733.47
2016-10-09T04:16:11.919Z,733.48
2016-10-09T04:17:11.900Z,733.42
2016-10-09T04:18:11.872Z,733.43
2016-10-09T04:19:11.860Z,733.46
2016-10-09T04:20:11.841Z,733.46
2016-10-09T04:21:11.816Z,733.43
2016-10-09T04:22:11.802Z,733.45
2016-10-09T04:23:11.783Z,733.45
2016-10-09T04:24:11.764Z,733.45
2016-10-09T04:25:11.737Z,733.41
2016-10-09T04:26:11.722Z,733.4
2016-10-09T04:27:11.706Z,733.38
2016-10-09T04:28:11.680Z,733.42
2016-10-09T04:29:11.668Z,733.41
2016-10-09T04:30:11.641Z,733.4
2016-10-09T04:31:11.622Z,733.39
2016-10-09T04:32:11.604Z,733.39
2016-10-09T04:33:11.590Z,733.38
2016-10-09T04:34:11.571Z,733.42
2016-10-09T04:35:11.545Z,733.39
2016-10-09T04:36:11.532Z,733.4
2016-10-09T04:37:11.513Z,733.38
2016-10-09T04:38:11.494Z,733.39
2016-10-09T04:39:11.470Z,733.42
2016-10-09T04:40:11.448Z,733.41
2016-10-09T04:41:11.430Z,733.41
2016-10-09T04:42:11.413Z,733.41
2016-10-09T04:43:11.400Z,733.38
2016-10-09T04:44:11.381Z,733.33
2016-10-09T04:45:11.363Z,733.41
2016-10-09T04:46:11.344Z,733.38
2016-10-09T04:47:11.317Z,733.41
2016-10-09T04:48:11.305Z,733.42
2016-10-09T04:49:11.287Z,733.4
2016-10-09T04:50:11.261Z,733.41
2016-10-09T04:51:11.248Z,733.41
2016-10-09T04:52:11.223Z,733.43
2016-10-09T04:53:11.211Z,733.4
2016-10-09T04:54:11.185Z,733.41
2016-10-09T04:55:11.166Z,733.43
2016-10-09T04:56:11.147Z,733.44
2016-10-09T04:57:11.135Z,733.43
2016-10-09T04:58:11.116Z,733.46
2016-10-09T04:59:11.097Z,733.45
2016-10-09T05:00:11.079Z,733.43
2016-10-09T05:01:11.060Z,733.41
2016-10-09T05:02:11.040Z,733.4
2016-10-09T05:03:11.015Z,733.4
2016-10-09T05:04:11.003Z,733.42
2016-10-09T05:05:10.983Z,733.4
2016-10-09T05:06:10.965Z,733.39
2016-10-09T05:07:10.938Z,733.37
2016-10-09T05:08:10.927Z,733.39
2016-10-09T05:09:10.907Z,733.39
2016-10-09T05:10:10.889Z,733.38
2016-10-09T05:11:10.871Z,733.36
2016-10-09T05:12:10.844Z,733.36
2016-10-09T05:13:11.638Z,733.35
2016-10-09T05:14:10.813Z,733.38
2016-10-09T05:15:10.795Z,733.36
2016-10-09T05:16:10.775Z,733.36
2016-10-09T05:17:10.756Z,733.4
2016-10-09T05:18:10.738Z,733.42
2016-10-09T05:19:10.712Z,733.39
2016-10-09T05:20:10.692Z,733.38
2016-10-09T05:21:10.675Z,733.35
2016-10-09T05:22:10.662Z,733.35
2016-10-09T05:23:10.644Z,733.39
2016-10-09T05:24:10.618Z,733.4
2016-10-09T05:25:10.598Z,733.39
2016-10-09T05:26:10.587Z,733.41
2016-10-09T05:27:10.560Z,733.39
2016-10-09T05:28:10.549Z,733.37
2016-10-09T05:29:10.531Z,733.4
2016-10-09T05:30:10.512Z,733.38
2016-10-09T05:31:10.487Z,733.36
2016-10-09T05:32:10.468Z,733.39
2016-10-09T05:33:10.456Z,733.39
2016-10-09T05:34:10.437Z,733.36
2016-10-09T05:35:10.411Z,733.37
2016-10-09T05:36:10.393Z,733.39
2016-10-09T05:37:10.380Z,733.4
2016-10-09T05:38:10.353Z,733.42
2016-10-09T05:39:10.342Z,733.4
2016-10-09T05:40:10.317Z,733.37
2016-10-09T05:41:10.297Z,733.44
2016-10-09T05:42:10.285Z,733.46
2016-10-09T05:43:10.259Z,733.44
2016-10-09T05:44:10.241Z,733.45
2016-10-09T05:45:10.222Z,733.45
2016-10-09T05:46:10.201Z,733.43
2016-10-09T05:47:10.183Z,733.42
2016-10-09T05:48:10.163Z,733.45
2016-10-09T05:49:10.142Z,733.45
2016-10-09T05:50:10.123Z,733.47
2016-10-09T05:51:10.104Z,733.45
2016-10-09T05:52:10.085Z,733.46
2016-10-09T05:53:10.065Z,733.49
2016-10-09T05:54:10.052Z,733.45
2016-10-09T05:55:10.033Z,733.45
2016-10-09T05:56:10.008Z,733.43
2016-10-09T05:57:09.993Z,733.42
2016-10-09T05:58:09.967Z,733.43
2016-10-09T05:59:09.949Z,733.43
2016-10-09T06:00:09.941Z,733.48
2016-10-09T06:01:09.915Z,733.47
2016-10-09T06:02:09.889Z,733.42
2016-10-09T06:03:09.869Z,733.47
2016-10-09T06:04:09.856Z,733.47
2016-10-09T06:05:09.830Z,733.45
2016-10-09T06:06:09.810Z,733.47
2016-10-09T06:07:09.798Z,733.49
2016-10-09T06:08:09.771Z,733.48
2016-10-09T06:09:09.758Z,733.46
2016-10-09T06:10:09.739Z,733.48
2016-10-09T06:11:09.718Z,733.5
2016-10-09T06:12:09.699Z,733.49
2016-10-09T06:13:09.673Z,733.52
2016-10-09T06:14:09.661Z,733.52
2016-10-09T06:15:09.641Z,733.54
2016-10-09T06:16:09.622Z,733.52
2016-10-09T06:17:09.597Z,733.51
2016-10-09T06:18:09.584Z,733.52
2016-10-09T06:19:09.560Z,733.52
2016-10-09T06:20:09.541Z,733.51
2016-10-09T06:21:09.530Z,733.56
2016-10-09T06:22:09.504Z,733.55
2016-10-09T06:23:09.492Z,733.53
2016-10-09T06:24:09.473Z,733.55
2016-10-09T06:25:09.449Z,733.57
2016-10-09T06:26:09.429Z,733.54
2016-10-09T06:27:09.411Z,733.54
2016-10-09T06:28:09.399Z,733.61
2016-10-09T06:29:09.373Z,733.55
2016-10-09T06:30:09.354Z,733.59
2016-10-09T06:31:09.337Z,733.6
2016-10-09T06:32:09.318Z,733.6
2016-10-09T06:33:09.300Z,733.6
2016-10-09T06:34:09.288Z,733.6
2016-10-09T06:35:09.262Z,733.58
2016-10-09T06:36:09.251Z,733.57
2016-10-09T06:37:09.225Z,733.64
2016-10-09T06:38:09.207Z,733.62
2016-10-09T06:39:09.189Z,733.63
2016-10-09T06:40:09.172Z,733.66
2016-10-09T06:41:09.160Z,733.65
2016-10-09T06:42:09.143Z,733.68
2016-10-09T06:43:09.125Z,733.69
2016-10-09T06:44:09.099Z,733.66
2016-10-09T06:45:09.089Z,733.65
2016-10-09T06:46:09.072Z,733.65
2016-10-09T06:47:09.048Z,733.65
2016-10-09T06:48:09.029Z,733.61
2016-10-09T06:49:09.019Z,733.64
2016-10-09T06:50:08.994Z,733.61
2016-10-09T06:51:08.976Z,733.61
2016-10-09T06:52:08.958Z,733.64
2016-10-09T06:53:08.942Z,733.64
2016-10-09T06:54:08.925Z,733.61
2016-10-09T06:55:08.913Z,733.63
2016-10-09T06:56:08.889Z,733.66
2016-10-09T06:57:08.871Z,733.67
2016-10-09T06:58:08.855Z,733.67
2016-10-09T06:59:08.837Z,733.67
2016-10-09T07:00:08.819Z,733.65
2016-10-09T07:01:08.809Z,733.65
2016-10-09T07:02:08.791Z,733.66
2016-10-09T07:03:08.768Z,733.64
2016-10-09T07:04:08.750Z,733.67
2016-10-09T07:05:08.741Z,733.65
2016-10-09T07:06:08.723Z,733.68
2016-10-09T07:07:08.700Z,733.69
2016-10-09T07:08:08.682Z,733.56
2016-10-09T07:09:08.673Z,733.61
2016-10-09T07:10:08.649Z,733.55
2016-10-09T07:11:08.632Z,733.57
2016-10-09T07:12:08.617Z,733.63
2016-10-09T07:13:08.606Z,733.65
2016-10-09T07:14:08.582Z,733.63
2016-10-09T07:15:08.566Z,733.66
2016-10-09T07:16:08.557Z,733.68
2016-10-09T07:17:08.533Z,733.68
2016-10-09T07:18:08.518Z,733.69
2016-10-09T07:19:08.501Z,733.66
2016-10-09T07:20:08.485Z,733.68
2016-10-09T07:21:08.467Z,733.72
2016-10-09T07:22:08.452Z,733.71
2016-10-09T07:23:08.442Z,733.72
2016-10-09T07:24:08.425Z,733.74
2016-10-09T07:25:08.408Z,733.71
2016-10-09T07:26:08.393Z,733.75
2016-10-09T07:27:08.369Z,733.75
2016-10-09T07:28:08.359Z,733.79
2016-10-09T07:29:08.343Z,733.79
2016-10-09T07:30:08.327Z,733.71
2016-10-09T07:31:08.305Z,733.75
2016-10-09T07:32:08.288Z,733.79
2016-10-09T07:33:08.271Z,733.8
2016-10-09T07:34:08.256Z,733.83
2016-10-09T07:35:08.238Z,733.87
2016-10-09T07:36:08.224Z,733.75
2016-10-09T07:37:08.207Z,733.77
2016-10-09T07:38:08.198Z,733.78
2016-10-09T07:39:08.175Z,733.78
2016-10-09T07:40:08.159Z,733.77
2016-10-09T07:41:08.151Z,733.79
2016-10-09T07:42:08.129Z,733.78
2016-10-09T07:43:08.112Z,733.79
2016-10-09T07:44:08.103Z,733.82
2016-10-09T07:45:08.082Z,733.81
2016-10-09T07:46:08.066Z,733.83
2016-10-09T07:47:08.057Z,733.82
2016-10-09T07:48:08.042Z,733.81
2016-10-09T07:49:08.027Z,733.82
2016-10-09T07:50:08.011Z,733.84
2016-10-09T07:51:07.988Z,733.84
2016-10-09T07:52:07.981Z,733.84
2016-10-09T07:53:07.966Z,733.85
2016-10-09T07:54:07.951Z,733.82
2016-10-09T07:55:07.937Z,733.86
2016-10-09T07:56:07.922Z,733.81
2016-10-09T07:57:07.899Z,733.85
2016-10-09T07:58:07.892Z,733.85
2016-10-09T07:59:07.869Z,733.86
2016-10-09T08:00:07.860Z,733.86
2016-10-09T08:01:07.840Z,733.86
2016-10-09T08:02:07.825Z,733.89
2016-10-09T08:03:07.810Z,733.82
2016-10-09T08:04:07.803Z,733.88
2016-10-09T08:05:07.781Z,733.89
2016-10-09T08:06:07.774Z,733.89
2016-10-09T08:07:07.759Z,733.88
2016-10-09T08:08:07.744Z,733.92
2016-10-09T08:09:07.724Z,733.95
2016-10-09T08:10:07.709Z,733.91
2016-10-09T08:11:07.702Z,733.91
2016-10-09T08:12:07.681Z,733.89
2016-10-09T08:13:07.668Z,733.89
2016-10-09T08:14:07.660Z,733.92
2016-10-09T08:15:07.638Z,733.89
2016-10-09T08:16:07.632Z,733.89
2016-10-09T08:17:07.620Z,733.91
2016-10-09T08:18:07.605Z,733.89
2016-10-09T08:19:07.590Z,733.91
2016-10-09T08:20:07.576Z,733.96
2016-10-09T08:21:07.557Z,733.91
2016-10-09T08:22:07.542Z,733.92
2016-10-09T08:23:07.535Z,733.88
2016-10-09T08:24:07.514Z,733.86
2016-10-09T08:25:07.507Z,733.87
2016-10-09T08:26:07.491Z,733.98
2016-10-09T08:27:07.479Z,733.91
2016-10-09T08:28:07.465Z,733.91
2016-10-09T08:29:07.451Z,733.9
2016-10-09T08:30:07.430Z,733.91
2016-10-09T08:31:07.422Z,733.89
2016-10-09T08:32:07.402Z,733.89
2016-10-09T08:33:07.394Z,733.92
2016-10-09T08:34:07.374Z,733.93
2016-10-09T08:35:07.360Z,733.94
2016-10-09T08:36:07.352Z,733.95
2016-10-09T08:37:07.337Z,734.01
2016-10-09T08:38:07.316Z,733.99
2016-10-09T08:39:07.309Z,733.98
2016-10-09T08:40:07.295Z,733.99
2016-10-09T08:41:07.280Z,734.03
2016-10-09T08:42:07.260Z,734.01
2016-10-09T08:43:07.245Z,734.01
2016-10-09T08:44:07.232Z,734
2016-10-09T08:45:07.217Z,733.99
2016-10-09T08:46:07.210Z,734.03
2016-10-09T08:47:07.197Z,733.99
2016-10-09T08:48:07.181Z,734.01
2016-10-09T08:49:07.162Z,734.09
2016-10-09T08:50:07.148Z,734.09
2016-10-09T08:51:07.141Z,734.05
2016-10-09T08:52:07.127Z,734.09
2016-10-09T08:53:07.106Z,734.07
2016-10-09T08:54:07.100Z,734.08
2016-10-09T08:55:07.080Z,734.05
2016-10-09T08:56:07.067Z,733.98
2016-10-09T08:57:07.060Z,734.04
2016-10-09T08:58:07.041Z,734.01
2016-10-09T08:59:07.026Z,733.99
2016-10-09T09:00:07.020Z,734
2016-10-09T09:01:07.007Z,734.02
2016-10-09T09:02:06.987Z,734.04
2016-10-09T09:03:06.980Z,734.01
2016-10-09T09:04:06.967Z,733.98
2016-10-09T09:05:06.954Z,733.96
2016-10-09T09:06:06.940Z,733.98
2016-10-09T09:07:06.926Z,733.94
2016-10-09T09:08:06.907Z,733.99
2016-10-09T09:09:06.900Z,734.01
2016-10-09T09:10:06.880Z,734
2016-10-09T09:11:06.873Z,733.99
2016-10-09T09:12:06.859Z,734.03
2016-10-09T09:13:06.840Z,734
2016-10-09T09:14:06.832Z,734
2016-10-09T09:15:06.818Z,734
2016-10-09T09:16:06.799Z,734.02
2016-10-09T09:17:06.784Z,733.99
2016-10-09T09:18:06.770Z,734.02
2016-10-09T09:19:06.907Z,734.05
2016-10-09T09:20:06.751Z,734.05
2016-10-09T09:21:06.736Z,734.06
2016-10-09T09:22:06.717Z,734.04
2016-10-09T09:23:06.704Z,734.05
2016-10-09T09:24:06.697Z,734.08
2016-10-09T09:25:06.683Z,734.04
2016-10-09T09:26:06.670Z,734.06
2016-10-09T09:27:06.663Z,734.05
2016-10-09T09:28:06.644Z,734.07
2016-10-09T09:29:06.624Z,734.1
2016-10-09T09:30:06.618Z,734.11
2016-10-09T09:31:06.598Z,734.1
2016-10-09T09:32:06.585Z,734.05
2016-10-09T09:33:06.578Z,734.06
2016-10-09T09:34:06.566Z,734.06
2016-10-09T09:35:06.547Z,734.05
2016-10-09T09:36:06.539Z,734.06
2016-10-09T09:37:06.520Z,734.02
2016-10-09T09:38:06.513Z,734.06
2016-10-09T09:39:06.494Z,734.07
2016-10-09T09:40:06.487Z,734.02
2016-10-09T09:41:06.475Z,734.03
2016-10-09T09:42:06.462Z,733.99
2016-10-09T09:43:06.441Z,734.02
2016-10-09T09:44:06.428Z,734.03
2016-10-09T09:45:06.423Z,733.99
2016-10-09T09:46:06.403Z,733.97
2016-10-09T09:47:06.388Z,734.02
2016-10-09T09:48:06.383Z,734.05
2016-10-09T09:49:06.370Z,734.06
2016-10-09T09:50:06.356Z,734.02
2016-10-09T09:51:06.343Z,733.99
2016-10-09T09:52:06.324Z,734.03
2016-10-09T09:53:06.310Z,734.02
2016-10-09T09:54:06.304Z,734.03
2016-10-09T09:55:06.291Z,734.04
2016-10-09T09:56:06.272Z,734.09
2016-10-09T09:57:06.259Z,734.22
2016-10-09T09:58:06.245Z,734.15
2016-10-09T09:59:06.239Z,734.1
2016-10-09T10:00:06.220Z,734.23
2016-10-09T10:01:06.206Z,734.2
2016-10-09T10:02:06.199Z,734.16
2016-10-09T10:03:06.187Z,734.14
2016-10-09T10:04:06.166Z,734.15
2016-10-09T10:05:06.152Z,734.13
2016-10-09T10:06:06.147Z,734.27
2016-10-09T10:07:06.133Z,734.13
2016-10-09T10:08:06.113Z,734.12
2016-10-09T10:09:06.106Z,734.21
2016-10-09T10:10:06.093Z,734.13
2016-10-09T10:11:06.081Z,734.24
2016-10-09T10:12:06.066Z,734.21
2016-10-09T10:13:06.053Z,734.26
2016-10-09T10:14:06.041Z,734.31
2016-10-09T10:15:06.028Z,734.14
2016-10-09T10:16:06.014Z,734.17
2016-10-09T10:17:06.001Z,734.17
2016-10-09T10:18:05.988Z,734.17
2016-10-09T10:19:05.969Z,734.24
2016-10-09T10:20:05.962Z,734.22
2016-10-09T10:21:05.949Z,734.25
2016-10-09T10:22:05.936Z,734.26
2016-10-09T10:23:05.915Z,734.26
2016-10-09T10:24:05.904Z,734.21
2016-10-09T10:25:05.890Z,734.22
2016-10-09T10:26:05.885Z,734.21
2016-10-09T10:27:05.871Z,734.15
2016-10-09T10:28:05.859Z,734.2
2016-10-09T10:29:05.846Z,734.21
2016-10-09T10:30:05.833Z,734.18
2016-10-09T10:31:05.813Z,734.2
2016-10-09T10:32:05.800Z,734.19
2016-10-09T10:33:05.795Z,734.32
2016-10-09T10:34:05.787Z,734.22
2016-10-09T10:35:05.769Z,734.27
2016-10-09T10:36:05.756Z,734.27
2016-10-09T10:37:05.736Z,734.23
2016-10-09T10:38:05.724Z,734.2
2016-10-09T10:39:05.718Z,734.23
2016-10-09T10:40:05.705Z,734.36
2016-10-09T10:41:05.693Z,734.27
2016-10-09T10:42:05.679Z,734.21
2016-10-09T10:43:05.667Z,734.23
2016-10-09T10:44:05.647Z,734.22
2016-10-09T10:45:05.634Z,734.2
2016-10-09T10:46:05.622Z,734.19
2016-10-09T10:47:05.617Z,734.28
2016-10-09T10:48:05.597Z,734.26
2016-10-09T10:49:05.585Z,734.28
2016-10-09T10:50:05.579Z,734.19
2016-10-09T10:51:05.560Z,734.15
2016-10-09T10:52:05.548Z,734.15
2016-10-09T10:53:05.536Z,734.21
2016-10-09T10:54:05.534Z,734.22
2016-10-09T10:55:05.512Z,734.22
2016-10-09T10:56:05.507Z,734.22
2016-10-09T10:57:05.495Z,734.24
2016-10-09T10:58:05.477Z,734.21
2016-10-09T10:59:05.465Z,734.23
2016-10-09T11:00:05.452Z,734.15
2016-10-09T11:01:05.440Z,734.11
2016-10-09T11:02:05.434Z,734.15
2016-10-09T11:03:05.422Z,734.13
2016-10-09T11:04:05.410Z,734.14
2016-10-09T11:05:05.392Z,734.12
2016-10-09T11:06:05.385Z,734.18
2016-10-09T11:07:05.372Z,734.14
2016-10-09T11:08:05.353Z,734.18
2016-10-09T11:09:05.341Z,734.19
2016-10-09T11:10:05.327Z,734.14
2016-10-09T11:11:05.315Z,734.12
2016-10-09T11:12:05.308Z,734.12
2016-10-09T11:13:05.289Z,734.1
2016-10-09T11:14:05.282Z,734.1
2016-10-09T11:15:05.269Z,734.1
2016-10-09T11:16:05.249Z,734.06
2016-10-09T11:17:05.236Z,734.12
2016-10-09T11:18:05.229Z,734.14
2016-10-09T11:19:05.216Z,734.1
2016-10-09T11:20:05.203Z,734.12
2016-10-09T11:21:05.190Z,734.1
2016-10-09T11:22:05.175Z,734.12
2016-10-09T11:23:05.162Z,734.15
2016-10-09T11:24:05.148Z,734.19
2016-10-09T11:25:05.128Z,734.24
2016-10-09T11:26:05.113Z,734.18
2016-10-09T11:27:05.098Z,734.1
2016-10-09T11:28:05.092Z,733.99
2016-10-09T11:29:05.077Z,734.11
2016-10-09T11:30:05.063Z,734.14
2016-10-09T11:31:05.043Z,734.09
2016-10-09T11:32:05.036Z,734.03
2016-10-09T11:33:05.014Z,734.04
2016-10-09T11:34:05.008Z,734.09
2016-10-09T11:35:04.994Z,734.06
2016-10-09T11:36:04.979Z,734.02
2016-10-09T11:37:04.959Z,734.01
2016-10-09T11:38:04.945Z,733.97
2016-10-09T11:39:04.930Z,733.96
2016-10-09T11:40:04.922Z,733.91
2016-10-09T11:41:04.908Z,733.9
2016-10-09T11:42:05.090Z,733.96
2016-10-09T11:43:04.873Z,733.95
2016-10-09T11:44:04.858Z,733.93
2016-10-09T11:45:04.844Z,733.96
2016-10-09T11:46:04.830Z,733.98
2016-10-09T11:47:04.814Z,733.95
2016-10-09T11:48:04.800Z,733.89
2016-10-09T11:49:04.787Z,733.87
2016-10-09T11:50:04.779Z,733.83
2016-10-09T11:51:04.763Z,733.87
2016-10-09T11:53:04.734Z,733.89
2016-10-09T11:54:04.714Z,733.91
2016-10-09T11:55:04.697Z,733.87
2016-10-09T11:56:04.683Z,733.86
2016-10-09T11:57:04.669Z,733.88
2016-10-09T11:58:04.659Z,733.89
2016-10-09T11:59:04.644Z,733.9
2016-10-09T12:00:04.622Z,733.89
2016-10-09T12:01:04.614Z,733.93
2016-10-09T12:02:04.591Z,733.91
2016-10-09T12:03:04.583Z,733.86
2016-10-09T12:04:04.568Z,733.86
2016-10-09T12:05:04.545Z,733.86
2016-10-09T12:06:04.530Z,733.9
2016-10-09T12:07:04.521Z,733.87
2016-10-09T12:08:04.499Z,733.87
2016-10-09T12:09:04.490Z,733.87
2016-10-09T12:10:04.468Z,733.87
2016-10-09T12:11:04.460Z,733.89
2016-10-09T12:12:04.438Z,733.93
2016-10-09T12:13:04.423Z,733.86
2016-10-09T12:14:04.409Z,733.89
2016-10-09T12:15:04.400Z,733.88
2016-10-09T12:16:04.384Z,733.87
2016-10-09T12:17:04.361Z,733.87
2016-10-09T12:18:04.353Z,733.85
2016-10-09T12:19:04.332Z,733.79
2016-10-09T12:20:04.324Z,733.78
2016-10-09T12:21:04.301Z,733.81
2016-10-09T12:22:04.285Z,733.81
2016-10-09T12:23:04.271Z,733.8
2016-10-09T12:24:04.255Z,733.81
2016-10-09T12:25:04.247Z,733.82
2016-10-09T12:26:04.232Z,733.84
2016-10-09T12:27:04.211Z,733.84
2016-10-09T12:28:04.195Z,733.82
2016-10-09T12:29:04.181Z,733.87
2016-10-09T12:30:04.172Z,733.88
2016-10-09T12:31:04.150Z,733.82